sensor_id;sensor_type;location;lat;lon;timestamp;pressure;altitude;pressure_sealevel;temperature;humidity
15634;BME280;14654;48.898;8.308;2022-08-01T00:01:36;100303.25;;;21.83;82.04
15634;BME280;14654;48.898;8.308;2022-08-01T00:04:02;100301.53;;;21.82;81.78
15634;BME280;14654;48.898;8.308;2022-08-01T00:06:27;100305.09;;;21.81;81.61
15634;BME280;14654;48.898;8.308;2022-08-01T00:08:53;100308.78;;;21.78;81.64
15634;BME280;14654;48.898;8.308;2022-08-01T00:11:18;100295.72;;;21.76;82.14
15634;BME280;14654;48.898;8.308;2022-08-01T00:13:44;100302.84;;;21.74;82.65
15634;BME280;14654;48.898;8.308;2022-08-01T00:16:09;100302.84;;;21.74;82.95
15634;BME280;14654;48.898;8.308;2022-08-01T00:18:35;100306.31;;;21.75;82.97
15634;BME280;14654;48.898;8.308;2022-08-01T00:21:02;100299.34;;;21.74;82.93
15634;BME280;14654;48.898;8.308;2022-08-01T00:23:28;100302.91;;;21.73;82.93
15634;BME280;14654;48.898;8.308;2022-08-01T00:25:53;100302.13;;;21.71;82.88
15634;BME280;14654;48.898;8.308;2022-08-01T00:28:19;100302.13;;;21.71;83.27
15634;BME280;14654;48.898;8.308;2022-08-01T00:30:45;100314.47;;;21.70;83.28
15634;BME280;14654;48.898;8.308;2022-08-01T00:33:10;100315.41;;;21.69;83.30
15634;BME280;14654;48.898;8.308;2022-08-01T00:35:36;100306.81;;;21.66;83.52
15634;BME280;14654;48.898;8.308;2022-08-01T00:38:01;100321.00;;;21.63;83.90
15634;BME280;14654;48.898;8.308;2022-08-01T00:40:26;100308.84;;;21.60;84.38
15634;BME280;14654;48.898;8.308;2022-08-01T00:42:52;100314.19;;;21.59;84.85
15634;BME280;14654;48.898;8.308;2022-08-01T00:45:20;100320.44;;;21.56;84.53
15634;BME280;14654;48.898;8.308;2022-08-01T00:47:45;100316.22;;;21.54;84.20
15634;BME280;14654;48.898;8.308;2022-08-01T00:50:11;100312.81;;;21.52;84.15
15634;BME280;14654;48.898;8.308;2022-08-01T00:52:38;100305.84;;;21.51;84.90
15634;BME280;14654;48.898;8.308;2022-08-01T00:55:05;100313.84;;;21.49;84.96
15634;BME280;14654;48.898;8.308;2022-08-01T00:57:30;100309.59;;;21.46;84.64
15634;BME280;14654;48.898;8.308;2022-08-01T00:59:56;100311.53;;;21.43;85.03
15634;BME280;14654;48.898;8.308;2022-08-01T01:02:21;100310.75;;;21.41;85.49
15634;BME280;14654;48.898;8.308;2022-08-01T01:04:46;100311.88;;;21.37;85.29
15634;BME280;14654;48.898;8.308;2022-08-01T01:09:52;100307.69;;;21.32;85.66
15634;BME280;14654;48.898;8.308;2022-08-01T01:12:38;100321.78;;;21.31;85.42
15634;BME280;14654;48.898;8.308;2022-08-01T01:15:18;100313.22;;;21.28;85.47
15634;BME280;14654;48.898;8.308;2022-08-01T01:17:53;100316.84;;;21.25;85.79
15634;BME280;14654;48.898;8.308;2022-08-01T01:20:21;100312.59;;;21.23;86.25
15634;BME280;14654;48.898;8.308;2022-08-01T01:31:27;100323.88;;;21.09;87.65
15634;BME280;14654;48.898;8.308;2022-08-01T01:33:55;100326.66;;;21.06;87.68
15634;BME280;14654;48.898;8.308;2022-08-01T01:36:24;100323.25;;;21.04;87.41
15634;BME280;14654;48.898;8.308;2022-08-01T01:38:52;100318.91;;;21.02;87.42
15634;BME280;14654;48.898;8.308;2022-08-01T01:41:18;100325.09;;;21.01;87.18
15634;BME280;14654;48.898;8.308;2022-08-01T01:43:46;100329.53;;;21.01;87.41
15634;BME280;14654;48.898;8.308;2022-08-01T01:46:16;100326.03;;;21.00;87.11
15634;BME280;14654;48.898;8.308;2022-08-01T01:48:43;100316.44;;;20.99;86.98
15634;BME280;14654;48.898;8.308;2022-08-01T01:51:10;100313.03;;;20.97;87.17
15634;BME280;14654;48.898;8.308;2022-08-01T01:53:38;100322.72;;;20.97;87.51
15634;BME280;14654;48.898;8.308;2022-08-01T01:56:06;100322.88;;;20.94;87.80
15634;BME280;14654;48.898;8.308;2022-08-01T01:58:34;100328.28;;;20.91;88.16
15634;BME280;14654;48.898;8.308;2022-08-01T02:01:01;100323.94;;;20.90;88.60
15634;BME280;14654;48.898;8.308;2022-08-01T02:03:28;100322.34;;;20.87;88.23
15634;BME280;14654;48.898;8.308;2022-08-01T02:05:54;100322.50;;;20.84;88.43
15634;BME280;14654;48.898;8.308;2022-08-01T02:08:21;100329.69;;;20.80;88.59
15634;BME280;14654;48.898;8.308;2022-08-01T02:10:50;100328.09;;;20.78;88.21
15634;BME280;14654;48.898;8.308;2022-08-01T02:13:37;100325.63;;;20.73;88.45
15634;BME280;14654;48.898;8.308;2022-08-01T02:16:04;100328.34;;;20.71;89.15
15634;BME280;14654;48.898;8.308;2022-08-01T02:18:30;100326.75;;;20.69;89.27
15634;BME280;14654;48.898;8.308;2022-08-01T02:20:57;100326.88;;;20.66;89.70
15634;BME280;14654;48.898;8.308;2022-08-01T02:23:28;100326.19;;;20.62;90.34
15634;BME280;14654;48.898;8.308;2022-08-01T02:25:58;100328.09;;;20.59;90.53
15634;BME280;14654;48.898;8.308;2022-08-01T02:28:30;100325.72;;;20.54;90.88
15634;BME280;14654;48.898;8.308;2022-08-01T02:31:02;100334.63;;;20.51;91.67
15634;BME280;14654;48.898;8.308;2022-08-01T02:33:36;100326.09;;;20.46;92.17
15634;BME280;14654;48.898;8.308;2022-08-01T02:36:03;100326.25;;;20.43;91.90
15634;BME280;14654;48.898;8.308;2022-08-01T02:38:35;100331.69;;;20.40;92.82
15634;BME280;14654;48.898;8.308;2022-08-01T02:41:11;100330.81;;;20.39;93.61
15634;BME280;14654;48.898;8.308;2022-08-01T02:43:42;100338.78;;;20.38;94.39
15634;BME280;14654;48.898;8.308;2022-08-01T02:46:12;100329.34;;;20.34;94.36
15634;BME280;14654;48.898;8.308;2022-08-01T02:48:41;100326.03;;;20.30;94.56
15634;BME280;14654;48.898;8.308;2022-08-01T02:51:07;100330.50;;;20.28;94.78
15634;BME280;14654;48.898;8.308;2022-08-01T02:53:36;100335.06;;;20.24;95.23
15634;BME280;14654;48.898;8.308;2022-08-01T02:56:05;100333.59;;;20.19;95.08
15634;BME280;14654;48.898;8.308;2022-08-01T02:58:31;100328.53;;;20.14;95.09
15634;BME280;14654;48.898;8.308;2022-08-01T03:00:58;100328.69;;;20.11;95.58
15634;BME280;14654;48.898;8.308;2022-08-01T03:03:25;100337.56;;;20.08;95.31
15634;BME280;14654;48.898;8.308;2022-08-01T03:05:50;100334.31;;;20.03;95.16
15634;BME280;14654;48.898;8.308;2022-08-01T03:08:18;100338.78;;;20.01;95.32
15634;BME280;14654;48.898;8.308;2022-08-01T03:10:45;100333.69;;;19.98;95.35
15634;BME280;14654;48.898;8.308;2022-08-01T03:13:15;100326.81;;;19.95;95.44
15634;BME280;14654;48.898;8.308;2022-08-01T03:15:43;100331.28;;;19.93;95.22
15634;BME280;14654;48.898;8.308;2022-08-01T03:18:10;100330.50;;;19.91;95.71
15634;BME280;14654;48.898;8.308;2022-08-01T03:20:37;100328.78;;;19.90;95.61
15634;BME280;14654;48.898;8.308;2022-08-01T03:23:05;100331.50;;;19.89;95.62
15634;BME280;14654;48.898;8.308;2022-08-01T03:25:35;100328.94;;;19.87;95.47
15634;BME280;14654;48.898;8.308;2022-08-01T03:28:03;100332.44;;;19.88;95.30
15634;BME280;14654;48.898;8.308;2022-08-01T03:30:31;100326.31;;;19.87;94.52
15634;BME280;14654;48.898;8.308;2022-08-01T03:32:57;100328.00;;;19.88;94.24
15634;BME280;14654;48.898;8.308;2022-08-01T03:35:30;100328.88;;;19.89;95.08
15634;BME280;14654;48.898;8.308;2022-08-01T03:37:56;100333.19;;;19.90;94.85
15634;BME280;14654;48.898;8.308;2022-08-01T03:40:39;100337.69;;;19.88;95.55
15634;BME280;14654;48.898;8.308;2022-08-01T03:43:18;100332.53;;;19.85;95.77
15634;BME280;14654;48.898;8.308;2022-08-01T03:45:50;100337.91;;;19.82;95.56
15634;BME280;14654;48.898;8.308;2022-08-01T03:48:18;100333.72;;;19.77;95.77
15634;BME280;14654;48.898;8.308;2022-08-01T03:50:50;100335.56;;;19.75;95.95
15634;BME280;14654;48.898;8.308;2022-08-01T03:53:20;100341.75;;;19.74;96.06
15634;BME280;14654;48.898;8.308;2022-08-01T03:55:47;100338.28;;;19.74;96.44
15634;BME280;14654;48.898;8.308;2022-08-01T03:58:14;100336.34;;;19.77;96.45
15634;BME280;14654;48.898;8.308;2022-08-01T04:00:39;100340.47;;;19.83;96.76
15634;BME280;14654;48.898;8.308;2022-08-01T04:03:09;100340.22;;;19.89;96.05
15634;BME280;14654;48.898;8.308;2022-08-01T04:05:35;100341.78;;;19.93;96.23
15634;BME280;14654;48.898;8.308;2022-08-01T04:08:00;100342.47;;;19.97;95.97
15634;BME280;14654;48.898;8.308;2022-08-01T04:10:28;100338.72;;;20.03;96.08
15634;BME280;14654;48.898;8.308;2022-08-01T04:12:53;100339.34;;;20.08;95.99
15634;BME280;14654;48.898;8.308;2022-08-01T04:15:19;100338.34;;;20.10;95.49
15634;BME280;14654;48.898;8.308;2022-08-01T04:17:47;100340.75;;;20.15;95.45
15634;BME280;14654;48.898;8.308;2022-08-01T04:20:13;100341.38;;;20.20;95.44
15634;BME280;14654;48.898;8.308;2022-08-01T04:22:39;100331.44;;;20.27;95.25
15634;BME280;14654;48.898;8.308;2022-08-01T04:25:11;100331.31;;;20.48;94.63
15634;BME280;14654;48.898;8.308;2022-08-01T04:27:40;100338.28;;;20.84;93.56
15634;BME280;14654;48.898;8.308;2022-08-01T04:30:08;100351.16;;;21.24;92.09
15634;BME280;14654;48.898;8.308;2022-08-01T04:32:38;100339.19;;;21.84;90.24
15634;BME280;14654;48.898;8.308;2022-08-01T04:35:07;100345.56;;;22.58;88.19
15634;BME280;14654;48.898;8.308;2022-08-01T04:37:36;100352.56;;;23.19;86.11
15634;BME280;14654;48.898;8.308;2022-08-01T04:40:04;100345.44;;;23.35;85.25
15634;BME280;14654;48.898;8.308;2022-08-01T04:42:32;100348.81;;;23.37;85.06
15634;BME280;14654;48.898;8.308;2022-08-01T04:44:58;100355.06;;;23.51;84.70
15634;BME280;14654;48.898;8.308;2022-08-01T04:47:25;100352.88;;;23.43;84.47
15634;BME280;14654;48.898;8.308;2022-08-01T04:49:51;100358.63;;;23.21;85.06
15634;BME280;14654;48.898;8.308;2022-08-01T04:52:16;100348.97;;;23.05;85.70
15634;BME280;14654;48.898;8.308;2022-08-01T04:54:43;100354.78;;;22.96;85.90
15634;BME280;14654;48.898;8.308;2022-08-01T04:57:09;100348.00;;;22.92;86.18
15634;BME280;14654;48.898;8.308;2022-08-01T04:59:37;100349.34;;;22.99;86.28
15634;BME280;14654;48.898;8.308;2022-08-01T05:02:10;100348.03;;;23.06;85.97
15634;BME280;14654;48.898;8.308;2022-08-01T05:04:37;100353.09;;;23.09;85.66
15634;BME280;14654;48.898;8.308;2022-08-01T05:07:03;100351.88;;;23.15;85.73
15634;BME280;14654;48.898;8.308;2022-08-01T05:09:29;100354.09;;;23.23;85.40
15634;BME280;14654;48.898;8.308;2022-08-01T05:11:56;100349.97;;;23.33;85.25
15634;BME280;14654;48.898;8.308;2022-08-01T05:14:24;100350.91;;;23.47;85.30
15634;BME280;14654;48.898;8.308;2022-08-01T05:16:50;100353.13;;;23.53;85.12
15634;BME280;14654;48.898;8.308;2022-08-01T05:19:17;100360.22;;;23.67;84.95
15634;BME280;14654;48.898;8.308;2022-08-01T05:21:42;100359.34;;;23.81;84.79
15634;BME280;14654;48.898;8.308;2022-08-01T05:24:08;100353.16;;;24.09;84.01
15634;BME280;14654;48.898;8.308;2022-08-01T05:26:33;100354.13;;;24.48;82.61
15634;BME280;14654;48.898;8.308;2022-08-01T05:28:59;100350.97;;;24.56;81.85
15634;BME280;14654;48.898;8.308;2022-08-01T05:31:25;100354.84;;;24.50;81.86
15634;BME280;14654;48.898;8.308;2022-08-01T05:33:50;100358.88;;;24.96;81.06
15634;BME280;14654;48.898;8.308;2022-08-01T05:36:15;100358.22;;;26.32;77.71
15634;BME280;14654;48.898;8.308;2022-08-01T05:38:41;100359.44;;;27.45;74.62
15634;BME280;14654;48.898;8.308;2022-08-01T05:41:06;100360.75;;;28.28;71.60
15634;BME280;14654;48.898;8.308;2022-08-01T05:43:32;100356.84;;;27.89;71.19
15634;BME280;14654;48.898;8.308;2022-08-01T05:45:57;100361.09;;;27.12;73.18
15634;BME280;14654;48.898;8.308;2022-08-01T05:48:23;100365.91;;;27.06;73.40
15634;BME280;14654;48.898;8.308;2022-08-01T05:50:49;100362.41;;;27.97;71.97
15634;BME280;14654;48.898;8.308;2022-08-01T05:53:15;100353.50;;;28.52;71.11
15634;BME280;14654;48.898;8.308;2022-08-01T05:55:41;100353.59;;;29.35;69.18
15634;BME280;14654;48.898;8.308;2022-08-01T05:58:06;100352.34;;;29.08;69.53
15634;BME280;14654;48.898;8.308;2022-08-01T06:00:31;100351.94;;;29.44;68.89
15634;BME280;14654;48.898;8.308;2022-08-01T06:02:57;100352.50;;;29.47;68.17
15634;BME280;14654;48.898;8.308;2022-08-01T06:05:22;100345.19;;;29.40;68.66
15634;BME280;14654;48.898;8.308;2022-08-01T06:07:48;100356.25;;;28.83;70.00
15634;BME280;14654;48.898;8.308;2022-08-01T06:10:13;100361.56;;;28.62;70.58
15634;BME280;14654;48.898;8.308;2022-08-01T06:12:39;100354.69;;;29.01;70.28
15634;BME280;14654;48.898;8.308;2022-08-01T06:15:05;100358.72;;;29.27;70.01
15634;BME280;14654;48.898;8.308;2022-08-01T06:17:31;100360.97;;;29.53;69.25
15634;BME280;14654;48.898;8.308;2022-08-01T06:19:57;100349.28;;;29.44;69.25
15634;BME280;14654;48.898;8.308;2022-08-01T06:22:22;100354.94;;;28.98;70.61
15634;BME280;14654;48.898;8.308;2022-08-01T06:24:47;100356.97;;;28.52;71.93
15634;BME280;14654;48.898;8.308;2022-08-01T06:27:13;100361.50;;;28.19;72.57
15634;BME280;14654;48.898;8.308;2022-08-01T06:29:38;100360.47;;;27.88;73.12
15634;BME280;14654;48.898;8.308;2022-08-01T06:32:04;100358.84;;;27.64;73.93
15634;BME280;14654;48.898;8.308;2022-08-01T06:34:29;100359.53;;;27.54;74.43
15634;BME280;14654;48.898;8.308;2022-08-01T06:36:54;100359.44;;;27.45;74.54
15634;BME280;14654;48.898;8.308;2022-08-01T06:39:20;100361.34;;;27.20;75.31
15634;BME280;14654;48.898;8.308;2022-08-01T06:41:45;100363.53;;;27.49;75.02
15634;BME280;14654;48.898;8.308;2022-08-01T06:44:13;100364.22;;;28.40;73.53
15634;BME280;14654;48.898;8.308;2022-08-01T06:46:39;100360.94;;;28.90;71.71
15634;BME280;14654;48.898;8.308;2022-08-01T06:49:04;100371.94;;;28.65;72.11
15634;BME280;14654;48.898;8.308;2022-08-01T06:51:30;100368.91;;;28.37;72.82
15634;BME280;14654;48.898;8.308;2022-08-01T06:53:55;100375.06;;;28.70;72.43
15634;BME280;14654;48.898;8.308;2022-08-01T06:56:20;100371.38;;;29.34;71.23
15634;BME280;14654;48.898;8.308;2022-08-01T06:58:46;100371.72;;;29.20;71.16
15634;BME280;14654;48.898;8.308;2022-08-01T07:01:12;100372.78;;;29.70;70.66
15634;BME280;14654;48.898;8.308;2022-08-01T07:03:37;100375.97;;;30.14;69.70
15634;BME280;14654;48.898;8.308;2022-08-01T07:06:03;100376.63;;;29.87;70.40
15634;BME280;14654;48.898;8.308;2022-08-01T07:08:28;100379.91;;;29.59;70.86
15634;BME280;14654;48.898;8.308;2022-08-01T07:10:54;100377.25;;;29.28;71.07
15634;BME280;14654;48.898;8.308;2022-08-01T07:13:20;100379.66;;;28.79;72.49
15634;BME280;14654;48.898;8.308;2022-08-01T07:15:50;100376.13;;;28.25;73.72
15634;BME280;14654;48.898;8.308;2022-08-01T07:18:15;100380.44;;;27.82;75.18
15634;BME280;14654;48.898;8.308;2022-08-01T07:20:40;100377.69;;;27.49;75.99
15634;BME280;14654;48.898;8.308;2022-08-01T07:23:06;100376.44;;;27.19;76.86
15634;BME280;14654;48.898;8.308;2022-08-01T07:25:31;100378.38;;;27.06;77.01
15634;BME280;14654;48.898;8.308;2022-08-01T07:27:57;100378.47;;;26.93;77.67
15634;BME280;14654;48.898;8.308;2022-08-01T07:30:22;100376.84;;;26.79;78.49
15634;BME280;14654;48.898;8.308;2022-08-01T07:32:47;100372.34;;;26.68;78.63
15634;BME280;14654;48.898;8.308;2022-08-01T07:35:13;100372.78;;;26.62;79.40
15634;BME280;14654;48.898;8.308;2022-08-01T07:37:38;100371.31;;;26.58;79.46
15634;BME280;14654;48.898;8.308;2022-08-01T07:40:04;100362.41;;;26.59;79.75
15634;BME280;14654;48.898;8.308;2022-08-01T07:42:31;100362.97;;;26.87;79.33
15634;BME280;14654;48.898;8.308;2022-08-01T07:44:56;100376.19;;;27.11;78.40
15634;BME280;14654;48.898;8.308;2022-08-01T07:47:25;100366.66;;;27.31;78.33
15634;BME280;14654;48.898;8.308;2022-08-01T07:49:52;100367.97;;;27.94;77.01
15634;BME280;14654;48.898;8.308;2022-08-01T07:52:17;100361.75;;;28.70;75.01
15634;BME280;14654;48.898;8.308;2022-08-01T07:54:43;100360.09;;;29.21;72.69
15634;BME280;14654;48.898;8.308;2022-08-01T07:57:08;100359.72;;;29.57;71.89
15634;BME280;14654;48.898;8.308;2022-08-01T07:59:34;100363.84;;;29.90;71.50
15634;BME280;14654;48.898;8.308;2022-08-01T08:01:59;100364.75;;;30.30;70.74
15634;BME280;14654;48.898;8.308;2022-08-01T08:04:26;100354.75;;;30.42;70.07
15634;BME280;14654;48.898;8.308;2022-08-01T08:06:52;100350.56;;;30.39;70.12
15634;BME280;14654;48.898;8.308;2022-08-01T08:09:18;100347.72;;;30.41;70.46
15634;BME280;14654;48.898;8.308;2022-08-01T08:11:45;100356.03;;;30.58;70.30
15634;BME280;14654;48.898;8.308;2022-08-01T08:14:11;100346.34;;;30.56;70.42
15634;BME280;14654;48.898;8.308;2022-08-01T08:16:37;100349.69;;;30.49;70.51
15634;BME280;14654;48.898;8.308;2022-08-01T08:19:02;100351.53;;;30.38;70.89
15634;BME280;14654;48.898;8.308;2022-08-01T08:21:27;100346.91;;;30.70;70.57
15634;BME280;14654;48.898;8.308;2022-08-01T08:23:53;100355.78;;;31.08;69.83
15634;BME280;14654;48.898;8.308;2022-08-01T08:26:37;100343.41;;;31.17;69.36
15634;BME280;14654;48.898;8.308;2022-08-01T08:29:03;100345.38;;;31.15;69.07
15634;BME280;14654;48.898;8.308;2022-08-01T08:31:28;100346.88;;;31.27;68.97
15634;BME280;14654;48.898;8.308;2022-08-01T08:33:53;100337.47;;;31.51;68.79
15634;BME280;14654;48.898;8.308;2022-08-01T08:36:19;100339.75;;;31.74;68.43
15634;BME280;14654;48.898;8.308;2022-08-01T08:38:44;100344.69;;;31.97;67.04
15634;BME280;14654;48.898;8.308;2022-08-01T08:41:12;100339.00;;;32.00;67.38
15634;BME280;14654;48.898;8.308;2022-08-01T08:43:39;100327.84;;;32.04;66.71
15634;BME280;14654;48.898;8.308;2022-08-01T08:46:05;100337.25;;;32.08;67.05
15634;BME280;14654;48.898;8.308;2022-08-01T08:48:33;100333.75;;;32.08;66.75
15634;BME280;14654;48.898;8.308;2022-08-01T08:51:00;100334.28;;;31.93;67.02
15634;BME280;14654;48.898;8.308;2022-08-01T08:53:26;100327.16;;;31.84;66.24
15634;BME280;14654;48.898;8.308;2022-08-01T08:55:52;100329.78;;;31.66;66.45
15634;BME280;14654;48.898;8.308;2022-08-01T08:58:18;100328.84;;;31.57;66.49
15634;BME280;14654;48.898;8.308;2022-08-01T09:00:44;100323.03;;;31.62;67.06
15634;BME280;14654;48.898;8.308;2022-08-01T09:03:11;100322.91;;;31.63;67.05
15634;BME280;14654;48.898;8.308;2022-08-01T09:05:39;100332.16;;;31.69;67.11
15634;BME280;14654;48.898;8.308;2022-08-01T09:08:07;100323.69;;;31.74;67.00
15634;BME280;14654;48.898;8.308;2022-08-01T09:10:32;100332.16;;;31.69;67.26
15634;BME280;14654;48.898;8.308;2022-08-01T09:18:07;100329.34;;;31.71;67.70
15634;BME280;14654;48.898;8.308;2022-08-01T09:20:33;100333.44;;;31.65;67.51
15634;BME280;14654;48.898;8.308;2022-08-01T09:23:02;100327.84;;;31.58;67.31
15634;BME280;14654;48.898;8.308;2022-08-01T09:25:27;100336.88;;;31.57;67.89
15634;BME280;14654;48.898;8.308;2022-08-01T09:28:05;100335.06;;;31.58;67.31
15634;BME280;14654;48.898;8.308;2022-08-01T09:30:37;100335.56;;;31.71;67.16
15634;BME280;14654;48.898;8.308;2022-08-01T09:33:05;100334.34;;;31.84;66.71
15634;BME280;14654;48.898;8.308;2022-08-01T09:35:32;100329.44;;;31.97;66.27
15634;BME280;14654;48.898;8.308;2022-08-01T09:40:51;100323.25;;;32.15;65.27
15634;BME280;14654;48.898;8.308;2022-08-01T09:43:17;100330.31;;;31.98;65.64
15634;BME280;14654;48.898;8.308;2022-08-01T09:45:43;100333.16;;;31.68;65.59
15634;BME280;14654;48.898;8.308;2022-08-01T09:48:09;100335.94;;;31.48;66.12
15634;BME280;14654;48.898;8.308;2022-08-01T09:50:39;100332.31;;;31.40;66.46
15634;BME280;14654;48.898;8.308;2022-08-01T09:53:05;100332.13;;;31.23;67.00
15634;BME280;14654;48.898;8.308;2022-08-01T09:55:31;100333.56;;;31.08;67.27
15634;BME280;14654;48.898;8.308;2022-08-01T09:57:56;100336.84;;;30.92;67.63
15634;BME280;14654;48.898;8.308;2022-08-01T10:00:26;100340.16;;;30.76;68.01
15634;BME280;14654;48.898;8.308;2022-08-01T10:02:52;100327.06;;;30.73;68.26
15634;BME280;14654;48.898;8.308;2022-08-01T10:05:17;100327.94;;;31.01;68.66
15634;BME280;14654;48.898;8.308;2022-08-01T10:08:04;100327.66;;;31.14;68.05
15634;BME280;14654;48.898;8.308;2022-08-01T10:10:30;100327.13;;;31.00;67.94
15634;BME280;14654;48.898;8.308;2022-08-01T10:12:59;100331.00;;;30.78;67.85
15634;BME280;14654;48.898;8.308;2022-08-01T10:15:26;100328.75;;;30.54;68.66
15634;BME280;14654;48.898;8.308;2022-08-01T10:17:57;100331.88;;;30.30;69.03
15634;BME280;14654;48.898;8.308;2022-08-01T10:20:28;100319.50;;;30.19;68.92
15634;BME280;14654;48.898;8.308;2022-08-01T10:22:55;100317.13;;;30.25;69.11
15634;BME280;14654;48.898;8.308;2022-08-01T10:25:23;100310.78;;;30.36;69.21
15634;BME280;14654;48.898;8.308;2022-08-01T10:27:49;100315.69;;;30.41;69.41
15634;BME280;14654;48.898;8.308;2022-08-01T10:30:17;100317.13;;;30.25;69.85
15634;BME280;14654;48.898;8.308;2022-08-01T10:32:45;100308.84;;;30.09;69.71
15634;BME280;14654;48.898;8.308;2022-08-01T10:35:10;100315.44;;;29.95;70.35
15634;BME280;14654;48.898;8.308;2022-08-01T10:37:42;100310.78;;;29.87;70.19
15634;BME280;14654;48.898;8.308;2022-08-01T10:40:11;100307.03;;;30.09;70.18
15634;BME280;14654;48.898;8.308;2022-08-01T10:42:42;100309.34;;;30.52;69.80
15634;BME280;14654;48.898;8.308;2022-08-01T10:45:09;100302.53;;;30.97;69.56
15634;BME280;14654;48.898;8.308;2022-08-01T10:50:14;100297.56;;;31.86;67.88
15634;BME280;14654;48.898;8.308;2022-08-01T10:52:41;100285.63;;;32.16;65.85
15634;BME280;14654;48.898;8.308;2022-08-01T10:55:07;100290.91;;;32.44;65.21
15634;BME280;14654;48.898;8.308;2022-08-01T10:57:45;100278.34;;;32.71;65.01
15634;BME280;14654;48.898;8.308;2022-08-01T11:00:19;100280.66;;;33.01;64.71
15634;BME280;14654;48.898;8.308;2022-08-01T11:03:00;100292.59;;;33.06;63.73
15634;BME280;14654;48.898;8.308;2022-08-01T11:05:30;100290.84;;;32.89;64.05
15634;BME280;14654;48.898;8.308;2022-08-01T11:07:58;100286.84;;;32.66;64.33
15634;BME280;14654;48.898;8.308;2022-08-01T11:10:39;100298.34;;;32.59;64.38
15634;BME280;14654;48.898;8.308;2022-08-01T11:13:05;100291.00;;;32.34;63.58
15634;BME280;14654;48.898;8.308;2022-08-01T11:15:34;100294.06;;;32.03;63.95
15634;BME280;14654;48.898;8.308;2022-08-01T11:18:01;100302.47;;;31.72;64.58
15634;BME280;14654;48.898;8.308;2022-08-01T11:25:23;100283.47;;;31.66;64.71
15634;BME280;14654;48.898;8.308;2022-08-01T11:30:53;100275.00;;;31.88;63.87
15634;BME280;14654;48.898;8.308;2022-08-01T11:41:24;100260.38;;;32.19;63.43
15634;BME280;14654;48.898;8.308;2022-08-01T11:44:00;100263.31;;;32.26;63.23
15634;BME280;14654;48.898;8.308;2022-08-01T11:46:45;100254.69;;;32.22;63.18
15634;BME280;14654;48.898;8.308;2022-08-01T11:52:08;100257.69;;;31.46;63.64
15634;BME280;14654;48.898;8.308;2022-08-01T11:54:36;100259.75;;;31.35;63.67
15634;BME280;14654;48.898;8.308;2022-08-01T11:57:08;100254.34;;;31.44;63.93
15634;BME280;14654;48.898;8.308;2022-08-01T11:59:40;100253.19;;;31.47;63.36
15634;BME280;14654;48.898;8.308;2022-08-01T12:04:59;100248.47;;;31.13;63.75
15634;BME280;14654;48.898;8.308;2022-08-01T12:07:27;100253.19;;;30.91;64.25
15634;BME280;14654;48.898;8.308;2022-08-01T12:10:01;100241.66;;;30.91;64.18
15634;BME280;14654;48.898;8.308;2022-08-01T12:12:28;100240.09;;;30.98;64.00
15634;BME280;14654;48.898;8.308;2022-08-01T12:15:04;100242.81;;;31.16;64.17
15634;BME280;14654;48.898;8.308;2022-08-01T12:17:33;100240.97;;;31.16;63.70
15634;BME280;14654;48.898;8.308;2022-08-01T12:19:59;100238.94;;;31.28;62.26
15634;BME280;14654;48.898;8.308;2022-08-01T12:22:24;100243.00;;;31.32;62.39
15634;BME280;14654;48.898;8.308;2022-08-01T12:24:50;100225.75;;;31.45;62.84
15634;BME280;14654;48.898;8.308;2022-08-01T12:27:29;100240.69;;;31.66;63.62
15634;BME280;14654;48.898;8.308;2022-08-01T12:29:56;100235.13;;;31.77;63.55
15634;BME280;14654;48.898;8.308;2022-08-01T12:32:31;100239.63;;;31.95;63.57
15634;BME280;14654;48.898;8.308;2022-08-01T12:35:10;100239.88;;;32.10;62.83
15634;BME280;14654;48.898;8.308;2022-08-01T12:40:19;100230.94;;;32.19;62.72
15634;BME280;14654;48.898;8.308;2022-08-01T12:42:47;100229.59;;;32.23;62.99
15634;BME280;14654;48.898;8.308;2022-08-01T12:45:15;100227.72;;;32.33;62.78
15634;BME280;14654;48.898;8.308;2022-08-01T12:47:41;100227.94;;;32.40;63.02
15634;BME280;14654;48.898;8.308;2022-08-01T12:50:11;100238.22;;;32.27;62.34
15634;BME280;14654;48.898;8.308;2022-08-01T12:52:37;100228.97;;;32.03;62.19
15634;BME280;14654;48.898;8.308;2022-08-01T12:57:35;100237.06;;;31.93;61.28
15634;BME280;14654;48.898;8.308;2022-08-01T13:00:08;100226.63;;;31.82;61.65
15634;BME280;14654;48.898;8.308;2022-08-01T13:02:35;100237.03;;;31.85;62.29
15634;BME280;14654;48.898;8.308;2022-08-01T13:05:02;100226.59;;;32.00;62.29
15634;BME280;14654;48.898;8.308;2022-08-01T13:07:36;100230.47;;;32.23;61.34
15634;BME280;14654;48.898;8.308;2022-08-01T13:10:02;100226.88;;;32.33;61.08
15634;BME280;14654;48.898;8.308;2022-08-01T13:12:28;100226.03;;;32.32;60.90
15634;BME280;14654;48.898;8.308;2022-08-01T13:14:53;100228.03;;;32.30;60.99
15634;BME280;14654;48.898;8.308;2022-08-01T13:17:37;100213.88;;;32.20;60.22
15634;BME280;14654;48.898;8.308;2022-08-01T13:20:04;100215.97;;;32.08;60.78
15634;BME280;14654;48.898;8.308;2022-08-01T13:22:36;100220.63;;;32.06;60.68
15634;BME280;14654;48.898;8.308;2022-08-01T13:25:28;100223.72;;;32.19;60.80
15634;BME280;14654;48.898;8.308;2022-08-01T13:28:27;100222.59;;;32.48;60.20
15634;BME280;14654;48.898;8.308;2022-08-01T13:30:53;100211.47;;;32.61;59.19
15634;BME280;14654;48.898;8.308;2022-08-01T13:33:19;100198.94;;;32.70;59.15
15634;BME280;14654;48.898;8.308;2022-08-01T13:35:44;100206.22;;;32.86;59.66
15634;BME280;14654;48.898;8.308;2022-08-01T13:38:11;100207.34;;;33.10;59.47
15634;BME280;14654;48.898;8.308;2022-08-01T13:40:36;100206.22;;;33.37;59.58
15634;BME280;14654;48.898;8.308;2022-08-01T13:43:02;100207.97;;;33.63;59.19